Nicolas Caicedo

Recruteur - Cortulua
2 Juil 2028
Dimanche
Processus

Personnalité

Adaptabilité (15) Ambition (3) Controverse (6) Loyauté (19) Pression (19) Professionnalisme (6) Sportivité (13) Tempérament (10)

Profil

Style d'entraînement Démocratique
Diplôme National A
Détermination 6
Gestion des joueurs 8
Motivation 3
Discipline 10
Satisfaction professionnelle
100%
Fatigue
0%
Rôle Recruteur
Salaire 46.3K p/s
Contrat 14.03.2030

Performance

Comportement Bon
Efficacité de l'entraînement
33%
Développement des joueurs
55%
Prévention des blessures
20%
Mise en place tactique
25%

Événements récents

A participé à une réunion de recrutement 7j
A évalué un joueur 14j
A participé à une réunion de recrutement 14j
A participé à une réunion de recrutement 21j
A recommandé une cible de transfert 21j
A évalué un joueur 28j
A participé à une réunion de recrutement 28j
A évalué un joueur 28j

Suivi en cours

96
Joueur Club Statut Capacité Confiance Observé Dernière observation Dernier vote
Ben Nelson Leicester City Actif 156 / 149 40% 1 12.06.2028 -
Jayson Molumby West Bromwich Albion Actif 143 / 127 40% 1 12.06.2028 -
Finn Azaz Southampton Actif 137 / 141 40% 1 30.05.2028 -
Tyrese Campbell Sheffield United Actif 138 / 137 40% 3 29.05.2028 -
Jaidon Anthony Derby County Actif 143 / 136 40% 2 23.05.2028 -
Antoni Milambo Brentford Actif 154 / 154 40% 2 23.05.2028 -
Brennan Johnson Middlesbrough Actif 146 / 150 40% 3 21.05.2028 -
Callum O'Hare Sheffield United Actif 147 / 140 40% 1 18.05.2028 -
Marcus Tavernier Bournemouth Actif 145 / 145 40% 1 17.05.2028 -
Jayden Bogle Leeds United Actif 153 / 146 40% 1 17.05.2028 -
Lamare Bogarde Reading Actif 130 / 140 40% 2 15.05.2028 -
Ben Gannon Doak Charlton Athletic Actif 142 / 149 40% 3 15.05.2028 -
Ra'ees Bangura-Williams Millwall Actif 111 / 117 40% 1 14.05.2028 -
Brenden Aaronson Leeds United Actif 148 / 148 40% 1 14.05.2028 -
Samuel Edozie Southampton Actif 138 / 136 40% 1 11.05.2028 -
Stanley Mills Crewe Alexandra Actif 143 / 133 40% 2 07.05.2028 -
Camilo Ibarra Tigres Actif 103 / 103 42% 1 / 1m 03.05.2028 -
Orles Aragón Tigres Actif 103 / 103 42% 1 / 1m 03.05.2028 -
Álvaro Tejero Leganés Actif 121 / 122 40% 2 02.05.2028 -
Henrik Meister Pisa Actif 133 / 123 40% 1 02.05.2028 -
Silko Thomas Rotherham United Actif 138 / 113 40% 2 30.04.2028 -
Callum Brittain Middlesbrough Actif 146 / 125 40% 1 30.04.2028 -
Harry Wilson Leeds United Actif 137 / 146 40% 1 29.04.2028 -
Malick Fofana Sunderland Actif 153 / 154 40% 1 25.04.2028 -
Santiago Pierotti Lecce Actif 140 / 137 40% 1 24.04.2028 -
Riley McGree Middlesbrough Actif 126 / 127 40% 1 24.04.2028 -
Carlos Alcaraz Stoke City Actif 165 / 158 40% 1 23.04.2028 -
Tyreece Campbell Charlton Athletic Actif 125 / 127 40% 1 22.04.2028 -
Amath N'Diaye Valladolid Actif 140 / 133 40% 1 22.04.2028 -
Mohamed-Ali Cho Hull City Actif 159 / 146 40% 1 21.04.2028 -
Ilias Chair Queens Park Rangers Actif 127 / 138 40% 1 21.04.2028 -
Kwadwo Baah Watford Actif 136 / 129 40% 1 20.04.2028 -
Archie Gray Southampton Actif 137 / 159 40% 1 16.04.2028 -
Enrique Clemente Las Palmas Actif 122 / 129 40% 1 15.04.2028 -
Malik Mothersille Stockport County Actif 134 / 125 40% 1 15.04.2028 -
Jaden Philogene Wolverhampton Actif 157 / 148 40% 1 14.04.2028 -
Erick Pulga Bahia Actif 138 / 139 40% 1 14.04.2028 -
Georginio Rutter Brighton Actif 142 / 160 40% 1 12.04.2028 -
Andrés Gómez Vasco da Gama Actif 150 / 141 40% 2 11.04.2028 -
Vitaly Janelt Derby County Actif 136 / 153 40% 1 11.04.2028 -
Quilindschy Hartman Burnley Actif 145 / 142 40% 2 03.04.2028 -
Abdoul Ouattara Port Vale Actif 141 / 129 40% 1 03.04.2028 -
Vasil Kušej Slavia Prague Actif 150 / 142 40% 1 23.03.2028 -
Fábio Carvalho Brentford Actif 158 / 140 40% 1 21.03.2028 -
Zito Luvumbo Cagliari Actif 126 / 128 40% 2 19.03.2028 -
Aaron Hickey Brentford Actif 136 / 152 40% 1 19.03.2028 -
Nuno Moreira Vasco da Gama Actif 141 / 127 40% 1 18.03.2028 -
Bryan Gil Girona Actif 164 / 148 40% 1 09.03.2028 -
Danilo Botafogo Actif 143 / 144 40% 1 09.03.2028 -
Domagoj Drožđek Tractor Actif 132 / 136 40% 1 08.03.2028 -
Mfundo Vilakazi Free State Stars Actif 133 / 122 40% 1 07.03.2028 -
Miguel Palacios Universitario Popayan Actif 122 / 125 30% 1 / 1m 23.02.2028 -
Lautaro Gordillo Colegiales Actif 121 / 108 40% 2 28.11.2027 -
Tadeo Allende Inter Miami CF Actif 141 / 121 40% 2 28.11.2027 -
Wessam Abou Ali Columbus Crew Actif 123 / 131 40% 1 27.11.2027 -
Alejo Cruz Juventud Actif 133 / 122 40% 1 27.11.2027 -
Juan Rocca Gimnasia y Tiro Actif 115 / 114 40% 1 26.11.2027 -
Talles Magno New York City Actif 150 / 138 40% 2 23.11.2027 -
Kévin Denkey FC Cincinnati Actif 143 / 137 40% 1 23.11.2027 -
Matías Arezo Penarol Actif 129 / 125 40% 1 22.11.2027 -
Ignacio Russo Tigre Actif 128 / 124 40% 2 20.11.2027 -
Juan Cruz de los Santos Nacional Actif 118 / 126 40% 2 15.11.2027 -
Jalal Abdullai Molde Actif 120 / 126 40% 1 15.11.2027 -
Francisco Galván Deportivo Municipal Actif 110 / 107 40% 1 13.11.2027 -
Francisco Bonfiglio Boston River Actif 115 / 115 40% 1 13.11.2027 -
Agustín Gallo Tristán Suárez Actif 125 / 106 40% 1 10.11.2027 -
Augusto Berrondo Tristán Suárez Actif 100 / 106 40% 1 10.11.2027 -
Esteban Obregón Montevideo City Torque Actif 119 / 122 40% 1 09.11.2027 -
Yoshan Valois Lanús Actif 114 / 117 40% 1 08.11.2027 -
Petar Musa FC Dallas Actif 127 / 136 40% 1 08.11.2027 -
Jefry Zapata Aldosivi Actif 129 / 121 40% 1 06.11.2027 -
Germán Berterame Inter Miami CF Actif 134 / 132 40% 1 06.11.2027 -
Daniel Karlsbakk Sarpsborg 08 Actif 137 / 118 40% 1 05.11.2027 -
Patrick Preciado Deportivo Pasto Actif 98 / 106 40% 1 02.11.2027 -
Esteban da Silva Racing Actif 104 / 115 40% 1 01.11.2027 -
Máximo Alonso Central Espanol Actif 109 / 107 40% 1 01.11.2027 -
Renzo Reynaga Patronato Actif 113 / 111 40% 1 26.10.2027 -
Jonás Luna Wanderers Actif 126 / 120 40% 1 26.10.2027 -
Cristian Barros Cerro Actif 120 / 110 40% 1 22.10.2027 -
Brayan Moreno Santa Fe Actif 121 / 109 40% 1 21.10.2027 -
Tomás Fernández Aldosivi Actif 127 / 112 40% 1 19.10.2027 -
Ivo Costantino River Plate Actif 112 / 114 40% 1 19.10.2027 -
Juan David Rueda Alianza Petrolera Actif 117 / 110 40% 1 15.10.2027 -
Marcelo Torres Gimnasia La Plata Actif 113 / 113 40% 1 14.10.2027 -
Sebastián Cocimano Nueva Chicago Actif 101 / 117 40% 2 11.10.2027 -
Luca Langoni Columbus Crew Actif 135 / 136 40% 1 11.10.2027 -
Leonardo Campana New England Revolution Actif 137 / 137 40% 1 08.10.2027 -
Facundo Krüger Temperley Actif 112 / 118 40% 1 07.10.2027 -
Rafael Moreno Atletico Venezuela Actif 107 / 114 40% 1 07.10.2027 -
César Magallan Estudiantes de Merida Actif 103 / 104 40% 1 06.10.2027 -
Yegor Kortsov Dinamo Brest Actif 127 / 100 40% 1 06.10.2027 -
Williams Barlasina Fortaleza CEIF Actif 122 / 122 44% 2 / 2m 29.09.2027 -
Joan Cajares Fortaleza CEIF Actif 111 / 114 30% 1 / 1m 21.07.2027 -
Maxence Prévot OH Leuven Actif 121 / 127 40% 1 28.12.2026 -
Nahuel Losada Lanús Actif 123 / 121 40% 1 28.12.2026 -
Luis Moreno Veracruz Actif 132 / 127 40% 1 17.10.2026 -